sensor_id;sensor_type;location;lat;lon;timestamp;temperature;humidity
35129;DHT22;21301;43.626;10.580;2023-06-26T00:02:05;23.20;99.90
35129;DHT22;21301;43.626;10.580;2023-06-26T00:04:31;23.20;99.90
35129;DHT22;21301;43.626;10.580;2023-06-26T00:06:57;23.30;99.90
35129;DHT22;21301;43.626;10.580;2023-06-26T00:09:23;23.20;99.90
35129;DHT22;21301;43.626;10.580;2023-06-26T00:11:49;23.10;99.90
35129;DHT22;21301;43.626;10.580;2023-06-26T00:14:14;23.10;99.90
35129;DHT22;21301;43.626;10.580;2023-06-26T00:16:41;23.00;99.90
35129;DHT22;21301;43.626;10.580;2023-06-26T00:19:08;22.90;99.90
35129;DHT22;21301;43.626;10.580;2023-06-26T00:21:33;22.90;99.90
35129;DHT22;21301;43.626;10.580;2023-06-26T00:23:59;23.00;99.90
35129;DHT22;21301;43.626;10.580;2023-06-26T00:26:25;23.20;99.90
35129;DHT22;21301;43.626;10.580;2023-06-26T00:28:52;23.20;99.90
35129;DHT22;21301;43.626;10.580;2023-06-26T00:31:19;23.20;99.90
35129;DHT22;21301;43.626;10.580;2023-06-26T00:33:45;23.10;99.90
35129;DHT22;21301;43.626;10.580;2023-06-26T00:36:11;23.10;99.90
35129;DHT22;21301;43.626;10.580;2023-06-26T00:38:37;23.10;99.90
35129;DHT22;21301;43.626;10.580;2023-06-26T00:41:05;23.00;99.90
35129;DHT22;21301;43.626;10.580;2023-06-26T00:43:38;23.10;99.90
35129;DHT22;21301;43.626;10.580;2023-06-26T00:46:11;23.10;99.90
35129;DHT22;21301;43.626;10.580;2023-06-26T00:48:39;23.20;99.90
35129;DHT22;21301;43.626;10.580;2023-06-26T00:51:07;23.20;99.90
35129;DHT22;21301;43.626;10.580;2023-06-26T00:53:35;23.30;99.90
35129;DHT22;21301;43.626;10.580;2023-06-26T00:56:02;23.20;99.90
35129;DHT22;21301;43.626;10.580;2023-06-26T00:58:28;23.10;99.90
35129;DHT22;21301;43.626;10.580;2023-06-26T01:00:57;22.50;99.90
35129;DHT22;21301;43.626;10.580;2023-06-26T01:03:24;22.80;99.90
35129;DHT22;21301;43.626;10.580;2023-06-26T01:05:56;23.00;99.90
35129;DHT22;21301;43.626;10.580;2023-06-26T01:08:24;22.90;99.90
35129;DHT22;21301;43.626;10.580;2023-06-26T01:10:51;22.90;99.90
35129;DHT22;21301;43.626;10.580;2023-06-26T01:13:17;22.90;99.90
35129;DHT22;21301;43.626;10.580;2023-06-26T01:15:47;22.90;99.90
35129;DHT22;21301;43.626;10.580;2023-06-26T01:18:14;22.90;99.90
35129;DHT22;21301;43.626;10.580;2023-06-26T01:20:41;22.80;99.90
35129;DHT22;21301;43.626;10.580;2023-06-26T01:23:22;22.30;99.90
35129;DHT22;21301;43.626;10.580;2023-06-26T01:26:22;22.20;99.90
35129;DHT22;21301;43.626;10.580;2023-06-26T01:28:53;22.10;99.90
35129;DHT22;21301;43.626;10.580;2023-06-26T01:31:19;21.80;99.90
35129;DHT22;21301;43.626;10.580;2023-06-26T01:33:46;21.70;99.90
35129;DHT22;21301;43.626;10.580;2023-06-26T01:36:12;21.60;99.90
35129;DHT22;21301;43.626;10.580;2023-06-26T01:38:40;21.40;99.90
35129;DHT22;21301;43.626;10.580;2023-06-26T01:41:06;21.30;99.90
35129;DHT22;21301;43.626;10.580;2023-06-26T01:46:25;21.30;99.90
35129;DHT22;21301;43.626;10.580;2023-06-26T01:52:16;21.10;99.90
35129;DHT22;21301;43.626;10.580;2023-06-26T01:57:57;21.10;99.90
35129;DHT22;21301;43.626;10.580;2023-06-26T02:00:26;21.00;99.90
35129;DHT22;21301;43.626;10.580;2023-06-26T02:02:52;21.10;99.90
35129;DHT22;21301;43.626;10.580;2023-06-26T02:05:20;20.90;99.90
35129;DHT22;21301;43.626;10.580;2023-06-26T02:07:45;20.80;99.90
35129;DHT22;21301;43.626;10.580;2023-06-26T02:10:12;20.80;99.90
35129;DHT22;21301;43.626;10.580;2023-06-26T02:12:38;20.70;99.90
35129;DHT22;21301;43.626;10.580;2023-06-26T02:15:04;20.60;99.90
35129;DHT22;21301;43.626;10.580;2023-06-26T02:17:32;20.70;99.90
35129;DHT22;21301;43.626;10.580;2023-06-26T02:19:58;20.60;99.90
35129;DHT22;21301;43.626;10.580;2023-06-26T02:22:25;20.50;99.90
35129;DHT22;21301;43.626;10.580;2023-06-26T02:24:51;20.40;99.90
35129;DHT22;21301;43.626;10.580;2023-06-26T02:27:17;20.30;99.90
35129;DHT22;21301;43.626;10.580;2023-06-26T02:29:44;20.40;99.90
35129;DHT22;21301;43.626;10.580;2023-06-26T02:32:13;20.40;99.90
35129;DHT22;21301;43.626;10.580;2023-06-26T02:34:40;20.20;99.90
35129;DHT22;21301;43.626;10.580;2023-06-26T02:37:08;20.20;99.90
35129;DHT22;21301;43.626;10.580;2023-06-26T02:39:34;20.10;99.90
35129;DHT22;21301;43.626;10.580;2023-06-26T02:42:09;20.20;99.90
35129;DHT22;21301;43.626;10.580;2023-06-26T02:44:35;20.30;99.90
35129;DHT22;21301;43.626;10.580;2023-06-26T02:47:01;20.10;99.90
35129;DHT22;21301;43.626;10.580;2023-06-26T02:49:27;20.20;99.90
35129;DHT22;21301;43.626;10.580;2023-06-26T02:51:54;20.30;99.90
35129;DHT22;21301;43.626;10.580;2023-06-26T02:54:25;20.30;99.90
35129;DHT22;21301;43.626;10.580;2023-06-26T02:56:58;20.20;99.90
35129;DHT22;21301;43.626;10.580;2023-06-26T02:59:30;20.10;99.90
35129;DHT22;21301;43.626;10.580;2023-06-26T03:01:57;20.00;99.90
35129;DHT22;21301;43.626;10.580;2023-06-26T03:04:30;20.00;99.90
35129;DHT22;21301;43.626;10.580;2023-06-26T03:07:03;19.90;99.90
35129;DHT22;21301;43.626;10.580;2023-06-26T03:09:29;19.90;99.90
35129;DHT22;21301;43.626;10.580;2023-06-26T03:11:56;19.80;99.90
35129;DHT22;21301;43.626;10.580;2023-06-26T03:14:22;19.70;99.90
35129;DHT22;21301;43.626;10.580;2023-06-26T03:16:50;19.60;99.90
35129;DHT22;21301;43.626;10.580;2023-06-26T03:19:19;19.50;99.90
35129;DHT22;21301;43.626;10.580;2023-06-26T03:22:09;19.40;99.90
35129;DHT22;21301;43.626;10.580;2023-06-26T03:24:36;19.40;99.90
35129;DHT22;21301;43.626;10.580;2023-06-26T03:27:03;19.40;99.90
35129;DHT22;21301;43.626;10.580;2023-06-26T03:29:28;19.30;99.90
35129;DHT22;21301;43.626;10.580;2023-06-26T03:31:57;19.40;99.90
35129;DHT22;21301;43.626;10.580;2023-06-26T03:34:24;19.40;99.90
35129;DHT22;21301;43.626;10.580;2023-06-26T03:37:02;19.40;99.90
35129;DHT22;21301;43.626;10.580;2023-06-26T03:39:30;19.40;99.90
35129;DHT22;21301;43.626;10.580;2023-06-26T03:42:00;19.30;99.90
35129;DHT22;21301;43.626;10.580;2023-06-26T03:44:30;19.20;99.90
35129;DHT22;21301;43.626;10.580;2023-06-26T03:46:57;19.20;99.90
35129;DHT22;21301;43.626;10.580;2023-06-26T03:49:25;19.20;99.90
35129;DHT22;21301;43.626;10.580;2023-06-26T03:51:52;19.20;99.90
35129;DHT22;21301;43.626;10.580;2023-06-26T03:54:21;19.30;99.90
35129;DHT22;21301;43.626;10.580;2023-06-26T03:56:52;19.30;99.90
35129;DHT22;21301;43.626;10.580;2023-06-26T03:59:22;19.30;99.90
35129;DHT22;21301;43.626;10.580;2023-06-26T04:01:48;19.40;99.90
35129;DHT22;21301;43.626;10.580;2023-06-26T04:04:14;19.50;99.90
35129;DHT22;21301;43.626;10.580;2023-06-26T04:06:39;19.40;99.90
35129;DHT22;21301;43.626;10.580;2023-06-26T04:09:08;19.50;99.90
35129;DHT22;21301;43.626;10.580;2023-06-26T04:11:35;19.50;99.90
35129;DHT22;21301;43.626;10.580;2023-06-26T04:14:03;19.50;99.90
35129;DHT22;21301;43.626;10.580;2023-06-26T04:16:28;19.60;99.90
35129;DHT22;21301;43.626;10.580;2023-06-26T04:18:56;19.70;99.90
35129;DHT22;21301;43.626;10.580;2023-06-26T04:21:23;19.80;99.90
35129;DHT22;21301;43.626;10.580;2023-06-26T04:23:53;19.90;99.90
35129;DHT22;21301;43.626;10.580;2023-06-26T04:26:21;20.10;99.90
35129;DHT22;21301;43.626;10.580;2023-06-26T04:28:50;20.20;99.90
35129;DHT22;21301;43.626;10.580;2023-06-26T04:31:16;20.30;99.90
35129;DHT22;21301;43.626;10.580;2023-06-26T04:33:42;20.30;99.90
35129;DHT22;21301;43.626;10.580;2023-06-26T04:36:09;20.40;99.90
35129;DHT22;21301;43.626;10.580;2023-06-26T04:38:36;20.40;99.90
35129;DHT22;21301;43.626;10.580;2023-06-26T04:41:04;20.50;99.90
35129;DHT22;21301;43.626;10.580;2023-06-26T04:43:30;20.50;99.90
35129;DHT22;21301;43.626;10.580;2023-06-26T04:45:56;20.60;99.90
35129;DHT22;21301;43.626;10.580;2023-06-26T04:48:24;20.70;99.90
35129;DHT22;21301;43.626;10.580;2023-06-26T04:50:54;20.70;99.90
35129;DHT22;21301;43.626;10.580;2023-06-26T04:53:23;20.90;99.90
35129;DHT22;21301;43.626;10.580;2023-06-26T04:55:50;20.90;99.90
35129;DHT22;21301;43.626;10.580;2023-06-26T04:58:18;21.00;99.90
35129;DHT22;21301;43.626;10.580;2023-06-26T05:00:50;21.10;99.90
35129;DHT22;21301;43.626;10.580;2023-06-26T05:03:18;21.20;99.90
35129;DHT22;21301;43.626;10.580;2023-06-26T05:05:55;21.40;99.90
35129;DHT22;21301;43.626;10.580;2023-06-26T05:08:25;21.60;99.90
35129;DHT22;21301;43.626;10.580;2023-06-26T05:11:00;21.80;99.90
35129;DHT22;21301;43.626;10.580;2023-06-26T05:13:30;22.00;99.90
35129;DHT22;21301;43.626;10.580;2023-06-26T05:15:59;22.20;99.90
35129;DHT22;21301;43.626;10.580;2023-06-26T05:18:37;22.40;99.90
35129;DHT22;21301;43.626;10.580;2023-06-26T05:21:08;22.60;99.90
35129;DHT22;21301;43.626;10.580;2023-06-26T05:23:36;22.70;99.90
35129;DHT22;21301;43.626;10.580;2023-06-26T05:26:03;22.80;99.90
35129;DHT22;21301;43.626;10.580;2023-06-26T05:28:30;23.00;99.90
35129;DHT22;21301;43.626;10.580;2023-06-26T05:31:00;23.20;99.90
35129;DHT22;21301;43.626;10.580;2023-06-26T05:33:28;23.30;99.90
35129;DHT22;21301;43.626;10.580;2023-06-26T05:36:00;23.30;99.90
35129;DHT22;21301;43.626;10.580;2023-06-26T05:38:29;23.60;99.90
35129;DHT22;21301;43.626;10.580;2023-06-26T05:41:01;23.70;99.90
35129;DHT22;21301;43.626;10.580;2023-06-26T05:43:29;23.60;99.90
35129;DHT22;21301;43.626;10.580;2023-06-26T05:45:58;23.70;99.90
35129;DHT22;21301;43.626;10.580;2023-06-26T05:48:29;23.80;99.90
35129;DHT22;21301;43.626;10.580;2023-06-26T05:51:01;23.90;99.90
35129;DHT22;21301;43.626;10.580;2023-06-26T05:53:30;24.00;99.90
35129;DHT22;21301;43.626;10.580;2023-06-26T05:55:56;24.00;99.90
35129;DHT22;21301;43.626;10.580;2023-06-26T05:58:24;24.20;99.90
35129;DHT22;21301;43.626;10.580;2023-06-26T06:00:52;24.40;99.90
35129;DHT22;21301;43.626;10.580;2023-06-26T06:03:21;24.60;99.90
35129;DHT22;21301;43.626;10.580;2023-06-26T06:05:47;24.50;99.90
35129;DHT22;21301;43.626;10.580;2023-06-26T06:08:19;24.70;99.90
35129;DHT22;21301;43.626;10.580;2023-06-26T06:10:49;24.90;99.90
35129;DHT22;21301;43.626;10.580;2023-06-26T06:13:17;25.10;99.90
35129;DHT22;21301;43.626;10.580;2023-06-26T06:15:44;25.40;99.90
35129;DHT22;21301;43.626;10.580;2023-06-26T06:18:10;25.80;99.90
35129;DHT22;21301;43.626;10.580;2023-06-26T06:20:37;26.10;99.90
35129;DHT22;21301;43.626;10.580;2023-06-26T06:23:04;26.40;99.90
35129;DHT22;21301;43.626;10.580;2023-06-26T06:25:31;26.40;99.90
35129;DHT22;21301;43.626;10.580;2023-06-26T06:27:56;26.50;99.90
35129;DHT22;21301;43.626;10.580;2023-06-26T06:30:50;26.50;99.90
35129;DHT22;21301;43.626;10.580;2023-06-26T06:33:18;26.90;99.90
35129;DHT22;21301;43.626;10.580;2023-06-26T06:35:46;27.30;99.90
35129;DHT22;21301;43.626;10.580;2023-06-26T06:38:13;27.50;99.90
35129;DHT22;21301;43.626;10.580;2023-06-26T06:40:44;27.60;99.90
35129;DHT22;21301;43.626;10.580;2023-06-26T06:43:11;27.80;99.90
35129;DHT22;21301;43.626;10.580;2023-06-26T06:45:48;27.80;99.90
35129;DHT22;21301;43.626;10.580;2023-06-26T06:48:16;28.30;99.90
35129;DHT22;21301;43.626;10.580;2023-06-26T06:50:46;28.10;99.90
35129;DHT22;21301;43.626;10.580;2023-06-26T06:53:16;28.10;99.90
35129;DHT22;21301;43.626;10.580;2023-06-26T06:55:43;28.00;99.90
35129;DHT22;21301;43.626;10.580;2023-06-26T06:58:12;28.30;99.90
35129;DHT22;21301;43.626;10.580;2023-06-26T07:00:43;28.70;99.90
35129;DHT22;21301;43.626;10.580;2023-06-26T07:03:09;28.80;99.90
35129;DHT22;21301;43.626;10.580;2023-06-26T07:05:42;28.80;99.90
35129;DHT22;21301;43.626;10.580;2023-06-26T07:08:11;29.00;99.90
35129;DHT22;21301;43.626;10.580;2023-06-26T07:10:42;29.00;99.90
35129;DHT22;21301;43.626;10.580;2023-06-26T07:13:13;29.10;99.90
35129;DHT22;21301;43.626;10.580;2023-06-26T07:15:48;29.40;99.90
35129;DHT22;21301;43.626;10.580;2023-06-26T07:18:39;29.90;99.90
35129;DHT22;21301;43.626;10.580;2023-06-26T07:21:06;30.00;99.90
35129;DHT22;21301;43.626;10.580;2023-06-26T07:23:40;30.20;99.90
35129;DHT22;21301;43.626;10.580;2023-06-26T07:26:05;30.50;99.90
35129;DHT22;21301;43.626;10.580;2023-06-26T07:28:37;30.90;99.90
35129;DHT22;21301;43.626;10.580;2023-06-26T07:31:05;30.70;99.90
35129;DHT22;21301;43.626;10.580;2023-06-26T07:34:02;31.40;99.90
35129;DHT22;21301;43.626;10.580;2023-06-26T07:36:31;31.40;99.90
35129;DHT22;21301;43.626;10.580;2023-06-26T07:39:28;31.60;99.90
35129;DHT22;21301;43.626;10.580;2023-06-26T07:42:24;31.70;99.90
35129;DHT22;21301;43.626;10.580;2023-06-26T07:45:00;31.40;99.90
35129;DHT22;21301;43.626;10.580;2023-06-26T07:47:39;31.50;99.90
35129;DHT22;21301;43.626;10.580;2023-06-26T07:50:12;31.50;99.90
35129;DHT22;21301;43.626;10.580;2023-06-26T07:52:53;31.40;99.90
35129;DHT22;21301;43.626;10.580;2023-06-26T07:55:23;31.20;99.90
35129;DHT22;21301;43.626;10.580;2023-06-26T07:58:00;31.10;99.90
35129;DHT22;21301;43.626;10.580;2023-06-26T08:00:36;31.10;99.90
35129;DHT22;21301;43.626;10.580;2023-06-26T08:03:03;30.90;99.90
35129;DHT22;21301;43.626;10.580;2023-06-26T08:05:37;31.60;99.70
35129;DHT22;21301;43.626;10.580;2023-06-26T08:08:14;32.10;99.20
35129;DHT22;21301;43.626;10.580;2023-06-26T08:10:42;32.60;98.80
35129;DHT22;21301;43.626;10.580;2023-06-26T08:13:45;32.90;98.50
35129;DHT22;21301;43.626;10.580;2023-06-26T08:16:12;32.70;97.90
35129;DHT22;21301;43.626;10.580;2023-06-26T08:18:50;32.90;98.10
35129;DHT22;21301;43.626;10.580;2023-06-26T08:21:18;33.00;97.20
35129;DHT22;21301;43.626;10.580;2023-06-26T08:24:06;33.50;97.40
35129;DHT22;21301;43.626;10.580;2023-06-26T08:26:36;33.60;97.10
35129;DHT22;21301;43.626;10.580;2023-06-26T08:29:08;33.00;97.30
35129;DHT22;21301;43.626;10.580;2023-06-26T08:31:39;33.50;97.10
35129;DHT22;21301;43.626;10.580;2023-06-26T08:34:06;33.20;96.50
35129;DHT22;21301;43.626;10.580;2023-06-26T08:36:41;33.50;97.00
35129;DHT22;21301;43.626;10.580;2023-06-26T08:39:15;33.30;96.70
35129;DHT22;21301;43.626;10.580;2023-06-26T08:41:53;33.50;96.30
35129;DHT22;21301;43.626;10.580;2023-06-26T08:44:22;33.70;96.00
35129;DHT22;21301;43.626;10.580;2023-06-26T08:46:51;33.80;95.60
35129;DHT22;21301;43.626;10.580;2023-06-26T08:53:05;34.30;94.60
35129;DHT22;21301;43.626;10.580;2023-06-26T08:55:36;34.40;94.30
35129;DHT22;21301;43.626;10.580;2023-06-26T08:58:15;34.50;94.50
35129;DHT22;21301;43.626;10.580;2023-06-26T09:01:12;34.10;93.80
35129;DHT22;21301;43.626;10.580;2023-06-26T09:04:22;34.10;94.10
35129;DHT22;21301;43.626;10.580;2023-06-26T09:06:48;34.50;94.10
35129;DHT22;21301;43.626;10.580;2023-06-26T09:09:19;34.50;94.20
35129;DHT22;21301;43.626;10.580;2023-06-26T09:11:50;34.90;94.20
35129;DHT22;21301;43.626;10.580;2023-06-26T09:14:47;34.70;93.60
35129;DHT22;21301;43.626;10.580;2023-06-26T09:17:16;35.10;93.60
35129;DHT22;21301;43.626;10.580;2023-06-26T09:19:48;35.00;93.20
35129;DHT22;21301;43.626;10.580;2023-06-26T09:22:54;34.70;93.20
35129;DHT22;21301;43.626;10.580;2023-06-26T09:25:25;34.70;91.90
35129;DHT22;21301;43.626;10.580;2023-06-26T09:27:53;35.00;92.00
35129;DHT22;21301;43.626;10.580;2023-06-26T09:30:25;35.10;92.00
35129;DHT22;21301;43.626;10.580;2023-06-26T09:33:20;35.40;91.50
35129;DHT22;21301;43.626;10.580;2023-06-26T09:36:20;35.10;90.20
35129;DHT22;21301;43.626;10.580;2023-06-26T09:38:51;35.20;91.00
35129;DHT22;21301;43.626;10.580;2023-06-26T09:41:42;34.80;91.50
35129;DHT22;21301;43.626;10.580;2023-06-26T09:44:22;35.20;91.30
35129;DHT22;21301;43.626;10.580;2023-06-26T09:47:06;35.40;91.40
35129;DHT22;21301;43.626;10.580;2023-06-26T09:49:58;35.20;91.00
35129;DHT22;21301;43.626;10.580;2023-06-26T09:52:27;35.20;91.20
35129;DHT22;21301;43.626;10.580;2023-06-26T09:55:08;35.10;91.10
35129;DHT22;21301;43.626;10.580;2023-06-26T09:57:40;34.50;91.00
35129;DHT22;21301;43.626;10.580;2023-06-26T10:00:09;34.60;91.40
35129;DHT22;21301;43.626;10.580;2023-06-26T10:02:40;34.60;91.50
35129;DHT22;21301;43.626;10.580;2023-06-26T10:05:31;34.50;91.80
35129;DHT22;21301;43.626;10.580;2023-06-26T10:08:23;34.60;91.90
35129;DHT22;21301;43.626;10.580;2023-06-26T10:10:52;33.90;92.30
35129;DHT22;21301;43.626;10.580;2023-06-26T10:13:30;34.20;92.50
35129;DHT22;21301;43.626;10.580;2023-06-26T10:16:02;34.40;92.20
35129;DHT22;21301;43.626;10.580;2023-06-26T10:18:37;34.80;92.20
35129;DHT22;21301;43.626;10.580;2023-06-26T10:21:26;34.60;91.80
35129;DHT22;21301;43.626;10.580;2023-06-26T10:24:31;34.60;91.70
35129;DHT22;21301;43.626;10.580;2023-06-26T10:27:20;34.20;91.40
35129;DHT22;21301;43.626;10.580;2023-06-26T10:29:56;33.70;91.80
35129;DHT22;21301;43.626;10.580;2023-06-26T10:32:28;33.70;91.80
35129;DHT22;21301;43.626;10.580;2023-06-26T10:34:58;33.40;91.80
35129;DHT22;21301;43.626;10.580;2023-06-26T10:38:01;33.30;92.20
35129;DHT22;21301;43.626;10.580;2023-06-26T10:40:50;33.90;90.80
35129;DHT22;21301;43.626;10.580;2023-06-26T10:43:29;34.30;91.10
35129;DHT22;21301;43.626;10.580;2023-06-26T10:45:58;34.20;90.60
35129;DHT22;21301;43.626;10.580;2023-06-26T10:48:30;34.80;90.70
35129;DHT22;21301;43.626;10.580;2023-06-26T10:51:15;35.20;90.60
35129;DHT22;21301;43.626;10.580;2023-06-26T10:53:56;35.40;89.10
35129;DHT22;21301;43.626;10.580;2023-06-26T10:56:43;35.20;88.20
35129;DHT22;21301;43.626;10.580;2023-06-26T10:59:26;35.10;88.00
35129;DHT22;21301;43.626;10.580;2023-06-26T11:02:21;35.30;88.10
35129;DHT22;21301;43.626;10.580;2023-06-26T11:05:29;35.60;88.40
35129;DHT22;21301;43.626;10.580;2023-06-26T11:08:08;35.70;87.60
35129;DHT22;21301;43.626;10.580;2023-06-26T11:10:54;35.40;87.90
35129;DHT22;21301;43.626;10.580;2023-06-26T11:13:24;34.70;88.50
35129;DHT22;21301;43.626;10.580;2023-06-26T11:15:55;34.50;88.60
35129;DHT22;21301;43.626;10.580;2023-06-26T11:18:35;34.40;88.10
35129;DHT22;21301;43.626;10.580;2023-06-26T11:21:09;34.90;88.20
35129;DHT22;21301;43.626;10.580;2023-06-26T11:23:47;34.70;86.70
35129;DHT22;21301;43.626;10.580;2023-06-26T11:26:19;34.70;86.40
35129;DHT22;21301;43.626;10.580;2023-06-26T11:28:56;34.70;86.20
35129;DHT22;21301;43.626;10.580;2023-06-26T11:31:35;34.80;85.90
35129;DHT22;21301;43.626;10.580;2023-06-26T11:34:08;34.90;85.40
35129;DHT22;21301;43.626;10.580;2023-06-26T11:36:40;34.50;84.70
35129;DHT22;21301;43.626;10.580;2023-06-26T11:39:09;34.20;85.00
35129;DHT22;21301;43.626;10.580;2023-06-26T11:42:16;34.00;85.20
35129;DHT22;21301;43.626;10.580;2023-06-26T11:45:01;33.90;85.50
35129;DHT22;21301;43.626;10.580;2023-06-26T11:47:35;33.60;84.90
35129;DHT22;21301;43.626;10.580;2023-06-26T11:50:18;33.80;90.50
35129;DHT22;21301;43.626;10.580;2023-06-26T11:52:45;34.10;90.40
35129;DHT22;21301;43.626;10.580;2023-06-26T11:55:23;34.40;91.30
35129;DHT22;21301;43.626;10.580;2023-06-26T11:57:56;33.70;92.00
35129;DHT22;21301;43.626;10.580;2023-06-26T12:00:53;34.00;92.40
35129;DHT22;21301;43.626;10.580;2023-06-26T12:03:44;34.00;92.30
35129;DHT22;21301;43.626;10.580;2023-06-26T12:06:09;34.80;92.20
35129;DHT22;21301;43.626;10.580;2023-06-26T12:09:00;34.20;92.30
35129;DHT22;21301;43.626;10.580;2023-06-26T12:11:34;33.60;92.30
35129;DHT22;21301;43.626;10.580;2023-06-26T12:14:10;34.10;92.70
35129;DHT22;21301;43.626;10.580;2023-06-26T12:17:12;34.40;92.40
35129;DHT22;21301;43.626;10.580;2023-06-26T12:20:01;34.60;92.50
35129;DHT22;21301;43.626;10.580;2023-06-26T12:22:39;34.40;92.80
35129;DHT22;21301;43.626;10.580;2023-06-26T12:25:12;34.40;92.70
35129;DHT22;21301;43.626;10.580;2023-06-26T12:28:18;34.30;92.60
35129;DHT22;21301;43.626;10.580;2023-06-26T12:31:45;34.30;92.80
35129;DHT22;21301;43.626;10.580;2023-06-26T12:34:48;34.50;92.30
35129;DHT22;21301;43.626;10.580;2023-06-26T12:37:37;34.50;92.50
35129;DHT22;21301;43.626;10.580;2023-06-26T12:40:20;33.90;92.90
35129;DHT22;21301;43.626;10.580;2023-06-26T12:42:49;33.70;93.00
35129;DHT22;21301;43.626;10.580;2023-06-26T12:45:27;34.10;92.80
35129;DHT22;21301;43.626;10.580;2023-06-26T12:48:22;34.00;92.60
35129;DHT22;21301;43.626;10.580;2023-06-26T12:51:18;33.90;92.60
35129;DHT22;21301;43.626;10.580;2023-06-26T12:54:28;33.80;92.30
35129;DHT22;21301;43.626;10.580;2023-06-26T12:56:59;33.60;92.40
35129;DHT22;21301;43.626;10.580;2023-06-26T12:59:50;33.80;92.30
35129;DHT22;21301;43.626;10.580;2023-06-26T13:02:18;34.00;92.00
35129;DHT22;21301;43.626;10.580;2023-06-26T13:05:28;34.10;91.90
35129;DHT22;21301;43.626;10.580;2023-06-26T13:08:18;33.70;91.80
35129;DHT22;21301;43.626;10.580;2023-06-26T13:10:52;34.10;91.70
35129;DHT22;21301;43.626;10.580;2023-06-26T13:13:41;34.10;91.40
35129;DHT22;21301;43.626;10.580;2023-06-26T13:16:33;34.00;91.30
35129;DHT22;21301;43.626;10.580;2023-06-26T13:19:22;34.20;91.50
35129;DHT22;21301;43.626;10.580;2023-06-26T13:22:37;34.30;91.30
35129;DHT22;21301;43.626;10.580;2023-06-26T13:25:30;33.90;91.30
35129;DHT22;21301;43.626;10.580;2023-06-26T13:28:10;34.10;91.40
35129;DHT22;21301;43.626;10.580;2023-06-26T13:31:00;33.80;91.40
35129;DHT22;21301;43.626;10.580;2023-06-26T13:33:38;33.80;91.70
35129;DHT22;21301;43.626;10.580;2023-06-26T13:36:35;34.00;91.40
35129;DHT22;21301;43.626;10.580;2023-06-26T13:39:20;33.90;91.70
35129;DHT22;21301;43.626;10.580;2023-06-26T13:42:03;33.90;91.70
35129;DHT22;21301;43.626;10.580;2023-06-26T13:44:40;33.60;91.80
35129;DHT22;21301;43.626;10.580;2023-06-26T13:47:38;33.90;92.10
35129;DHT22;21301;43.626;10.580;2023-06-26T13:50:14;33.90;92.60
35129;DHT22;21301;43.626;10.580;2023-06-26T13:52:51;33.80;92.50
35129;DHT22;21301;43.626;10.580;2023-06-26T13:55:54;33.30;92.40
35129;DHT22;21301;43.626;10.580;2023-06-26T13:59:00;33.60;92.80
35129;DHT22;21301;43.626;10.580;2023-06-26T14:01:40;33.70;93.10
35129;DHT22;21301;43.626;10.580;2023-06-26T14:04:36;33.60;92.80
35129;DHT22;21301;43.626;10.580;2023-06-26T14:07:09;33.30;93.50
35129;DHT22;21301;43.626;10.580;2023-06-26T14:09:59;33.00;93.40
35129;DHT22;21301;43.626;10.580;2023-06-26T14:13:09;33.30;93.50
35129;DHT22;21301;43.626;10.580;2023-06-26T14:15:51;33.60;93.50
35129;DHT22;21301;43.626;10.580;2023-06-26T14:18:54;33.70;93.20
35129;DHT22;21301;43.626;10.580;2023-06-26T14:21:21;33.40;93.70
35129;DHT22;21301;43.626;10.580;2023-06-26T14:23:50;33.30;93.90
35129;DHT22;21301;43.626;10.580;2023-06-26T14:26:44;33.40;93.70
35129;DHT22;21301;43.626;10.580;2023-06-26T14:30:04;33.00;93.80
35129;DHT22;21301;43.626;10.580;2023-06-26T14:32:56;32.50;94.20
35129;DHT22;21301;43.626;10.580;2023-06-26T14:35:50;32.20;94.10
35129;DHT22;21301;43.626;10.580;2023-06-26T14:38:21;32.60;94.30
35129;DHT22;21301;43.626;10.580;2023-06-26T14:41:14;32.40;94.40
35129;DHT22;21301;43.626;10.580;2023-06-26T14:44:08;32.30;94.30
35129;DHT22;21301;43.626;10.580;2023-06-26T14:47:05;32.40;94.50
35129;DHT22;21301;43.626;10.580;2023-06-26T14:49:39;32.00;94.30
35129;DHT22;21301;43.626;10.580;2023-06-26T14:52:38;31.80;94.60
35129;DHT22;21301;43.626;10.580;2023-06-26T14:55:09;31.60;94.80
35129;DHT22;21301;43.626;10.580;2023-06-26T14:57:45;31.80;94.70
35129;DHT22;21301;43.626;10.580;2023-06-26T15:00:15;32.20;94.70
35129;DHT22;21301;43.626;10.580;2023-06-26T15:03:04;32.10;94.80
35129;DHT22;21301;43.626;10.580;2023-06-26T15:06:15;32.00;94.60
35129;DHT22;21301;43.626;10.580;2023-06-26T15:09:23;32.00;95.00
35129;DHT22;21301;43.626;10.580;2023-06-26T15:16:39;31.60;94.80
35129;DHT22;21301;43.626;10.580;2023-06-26T15:19:58;32.00;95.20
35129;DHT22;21301;43.626;10.580;2023-06-26T15:22:51;31.90;93.30
35129;DHT22;21301;43.626;10.580;2023-06-26T15:25:21;31.90;93.50
35129;DHT22;21301;43.626;10.580;2023-06-26T15:28:03;32.50;94.00
35129;DHT22;21301;43.626;10.580;2023-06-26T15:31:06;32.40;94.10
35129;DHT22;21301;43.626;10.580;2023-06-26T15:34:39;31.80;93.40
35129;DHT22;21301;43.626;10.580;2023-06-26T15:37:06;32.40;93.40
35129;DHT22;21301;43.626;10.580;2023-06-26T15:39:54;32.20;93.00
35129;DHT22;21301;43.626;10.580;2023-06-26T15:43:07;32.00;93.40
35129;DHT22;21301;43.626;10.580;2023-06-26T15:46:04;31.90;92.90
35129;DHT22;21301;43.626;10.580;2023-06-26T15:48:58;32.50;93.60
35129;DHT22;21301;43.626;10.580;2023-06-26T15:51:26;32.70;93.40
35129;DHT22;21301;43.626;10.580;2023-06-26T15:57:34;32.70;93.20
35129;DHT22;21301;43.626;10.580;2023-06-26T16:00:25;32.50;93.00
35129;DHT22;21301;43.626;10.580;2023-06-26T16:03:42;32.20;93.40
35129;DHT22;21301;43.626;10.580;2023-06-26T16:06:19;32.00;93.20
35129;DHT22;21301;43.626;10.580;2023-06-26T16:09:02;31.60;93.50
35129;DHT22;21301;43.626;10.580;2023-06-26T16:11:50;32.20;93.90
35129;DHT22;21301;43.626;10.580;2023-06-26T16:14:25;32.30;94.00
35129;DHT22;21301;43.626;10.580;2023-06-26T16:17:18;32.00;93.90
35129;DHT22;21301;43.626;10.580;2023-06-26T16:20:14;31.90;93.60
35129;DHT22;21301;43.626;10.580;2023-06-26T16:23:04;32.10;93.10
35129;DHT22;21301;43.626;10.580;2023-06-26T16:25:43;31.80;92.80
35129;DHT22;21301;43.626;10.580;2023-06-26T16:28:15;31.80;93.00
35129;DHT22;21301;43.626;10.580;2023-06-26T16:30:41;32.10;93.80
35129;DHT22;21301;43.626;10.580;2023-06-26T16:33:20;32.40;93.90
35129;DHT22;21301;43.626;10.580;2023-06-26T16:35:53;32.30;94.00